サイパン島 の空港の天気 - METARとTAF

サイパン国際空港 ( PGSN / SPN ) - 北マリアナ諸島 サイパン島
飛行場実況気象(Metar)
観測時間11/16 01:54 ChST (11/15 15:54 UTC)
風向・風速北東 5m/s
視程-
天気現象
少しの雲 雲底高度 300m
少しの雲 雲底高度 1100m
気温26.7℃
湿度-
気圧1012hPa
METARPGSN 151554Z AUTO 05009KT FEW010 FEW036 27/ A2982 RMK AO2 SLP120 T0267 PWINO TSNO $
過去の天気等 Google飛行場航空写真 Wunderground天気予報

過去48時間のMETAR

飛行場予報(TAF)
発表時間: 11/15 21:23 ChST (11/15 11:23 UTC)
予報対象時間: 15日22時 ChST ~ 16日22時 ChST
風向・風速北東 4m/s
視程10km以上
少しの雲 雲底高度 550m
全天の4割程度の雲 雲底高度 1220m
16日10時 ChST から
風向・風速東北東 6m/s 瞬間風速 10m/s
視程10km以上
天気現象周辺でしゅう雨
少しの雲 雲底高度 550m
全天の4割程度の雲 雲底高度 1220m
16日19時 ChST から
風向・風速東北東 6m/s
視程10km以上
天気現象周辺でしゅう雨
少しの雲 雲底高度 550m
全天の4割程度の雲 雲底高度 1220m
PGSN 151123Z 1512/1612 04008KT P6SM FEW018 SCT040
FM160000 07012G20KT P6SM VCSH FEW018 SCT040
FM160900 07011KT P6SM VCSH FEW018 SCT040